sensor_id;sensor_type;location;lat;lon;timestamp;pressure;altitude;pressure_sealevel;temperature;humidity
62655;BME280;48717;55.556;37.816;2024-02-16T00:01:07;101123.72;;;-11.24;94.74
62655;BME280;48717;55.556;37.816;2024-02-16T00:03:34;101126.09;;;-11.26;95.12
62655;BME280;48717;55.556;37.816;2024-02-16T00:06:02;101121.19;;;-11.24;95.68
62655;BME280;48717;55.556;37.816;2024-02-16T00:08:30;101110.50;;;-11.29;95.25
62655;BME280;48717;55.556;37.816;2024-02-16T00:10:57;101107.78;;;-11.31;95.72
62655;BME280;48717;55.556;37.816;2024-02-16T00:13:25;101113.22;;;-11.28;95.85
62655;BME280;48717;55.556;37.816;2024-02-16T00:15:53;101122.47;;;-11.28;96.12
62655;BME280;48717;55.556;37.816;2024-02-16T00:18:21;101105.06;;;-11.32;95.47
62655;BME280;48717;55.556;37.816;2024-02-16T00:20:49;101093.31;;;-11.39;95.77
62655;BME280;48717;55.556;37.816;2024-02-16T00:23:17;101115.00;;;-11.27;95.78
62655;BME280;48717;55.556;37.816;2024-02-16T00:25:46;101102.84;;;-11.29;95.51
62655;BME280;48717;55.556;37.816;2024-02-16T00:28:13;101116.50;;;-11.29;95.96
62655;BME280;48717;55.556;37.816;2024-02-16T00:30:40;101107.59;;;-11.32;96.03
62655;BME280;48717;55.556;37.816;2024-02-16T00:33:08;101099.09;;;-11.33;96.25
62655;BME280;48717;55.556;37.816;2024-02-16T00:35:35;101076.25;;;-11.40;95.87
62655;BME280;48717;55.556;37.816;2024-02-16T00:38:02;101083.47;;;-11.36;96.78
62655;BME280;48717;55.556;37.816;2024-02-16T00:40:30;101086.19;;;-11.34;95.72
62655;BME280;48717;55.556;37.816;2024-02-16T00:43:01;101092.84;;;-11.28;96.65
62655;BME280;48717;55.556;37.816;2024-02-16T00:45:28;101089.19;;;-11.30;96.27
62655;BME280;48717;55.556;37.816;2024-02-16T00:47:55;101080.50;;;-11.32;95.91
62655;BME280;48717;55.556;37.816;2024-02-16T00:50:24;101074.03;;;-11.37;96.57
62655;BME280;48717;55.556;37.816;2024-02-16T00:52:52;101071.47;;;-11.37;96.37
62655;BME280;48717;55.556;37.816;2024-02-16T00:55:22;101081.56;;;-11.30;96.77
62655;BME280;48717;55.556;37.816;2024-02-16T00:57:49;101070.91;;;-11.34;96.57
62655;BME280;48717;55.556;37.816;2024-02-16T01:00:16;101064.56;;;-11.38;96.83
62655;BME280;48717;55.556;37.816;2024-02-16T01:02:46;101026.09;;;-11.57;96.11
62655;BME280;48717;55.556;37.816;2024-02-16T01:05:13;101064.25;;;-11.41;97.01
62655;BME280;48717;55.556;37.816;2024-02-16T01:07:44;101057.66;;;-11.39;96.50
62655;BME280;48717;55.556;37.816;2024-02-16T01:10:13;101065.81;;;-11.34;96.48
62655;BME280;48717;55.556;37.816;2024-02-16T01:12:40;101063.09;;;-11.36;96.83
62655;BME280;48717;55.556;37.816;2024-02-16T01:15:07;101071.25;;;-11.31;96.48
62655;BME280;48717;55.556;37.816;2024-02-16T01:17:35;101078.72;;;-11.33;96.37
62655;BME280;48717;55.556;37.816;2024-02-16T01:20:03;101070.31;;;-11.32;96.22
62655;BME280;48717;55.556;37.816;2024-02-16T01:22:32;101066.69;;;-11.34;96.44
62655;BME280;48717;55.556;37.816;2024-02-16T01:24:59;101068.19;;;-11.36;96.32
62655;BME280;48717;55.556;37.816;2024-02-16T01:27:27;101057.25;;;-11.35;95.84
62655;BME280;48717;55.556;37.816;2024-02-16T01:29:55;101065.47;;;-11.37;95.71
62655;BME280;48717;55.556;37.816;2024-02-16T01:32:22;101076.88;;;-11.34;95.50
62655;BME280;48717;55.556;37.816;2024-02-16T01:34:49;101050.44;;;-11.43;95.97
62655;BME280;48717;55.556;37.816;2024-02-16T01:37:17;101055.22;;;-11.46;95.70
62655;BME280;48717;55.556;37.816;2024-02-16T01:39:44;101083.81;;;-11.33;95.95
62655;BME280;48717;55.556;37.816;2024-02-16T01:42:12;101075.75;;;-11.29;95.61
62655;BME280;48717;55.556;37.816;2024-02-16T01:44:40;101063.09;;;-11.36;95.29
62655;BME280;48717;55.556;37.816;2024-02-16T01:47:07;101085.53;;;-11.24;95.39
62655;BME280;48717;55.556;37.816;2024-02-16T01:49:35;101064.56;;;-11.38;95.81
62655;BME280;48717;55.556;37.816;2024-02-16T01:52:03;101064.31;;;-11.32;95.19
62655;BME280;48717;55.556;37.816;2024-02-16T01:54:30;101067.78;;;-11.32;95.09
62655;BME280;48717;55.556;37.816;2024-02-16T01:56:59;101084.03;;;-11.22;95.45
62655;BME280;48717;55.556;37.816;2024-02-16T01:59:27;101072.06;;;-11.23;94.80
62655;BME280;48717;55.556;37.816;2024-02-16T02:01:54;101065.88;;;-11.25;95.07
62655;BME280;48717;55.556;37.816;2024-02-16T02:04:21;101071.31;;;-11.22;95.07
62655;BME280;48717;55.556;37.816;2024-02-16T02:06:49;101080.28;;;-11.26;95.14
62655;BME280;48717;55.556;37.816;2024-02-16T02:09:16;101089.88;;;-11.23;95.03
62655;BME280;48717;55.556;37.816;2024-02-16T02:11:44;101071.78;;;-11.34;94.49
62655;BME280;48717;55.556;37.816;2024-02-16T02:14:11;101083.28;;;-11.21;94.54
62655;BME280;48717;55.556;37.816;2024-02-16T02:16:38;101084.78;;;-11.23;94.58
62655;BME280;48717;55.556;37.816;2024-02-16T02:19:21;101068.81;;;-11.30;94.72
62655;BME280;48717;55.556;37.816;2024-02-16T02:21:48;101061.06;;;-11.31;94.35
62655;BME280;48717;55.556;37.816;2024-02-16T02:24:17;101075.00;;;-11.28;94.42
62655;BME280;48717;55.556;37.816;2024-02-16T02:26:44;101065.97;;;-11.33;94.47
62655;BME280;48717;55.556;37.816;2024-02-16T02:29:13;101056.50;;;-11.34;95.10
62655;BME280;48717;55.556;37.816;2024-02-16T02:31:40;101070.66;;;-11.29;95.06
62655;BME280;48717;55.556;37.816;2024-02-16T02:34:07;101063.75;;;-11.30;94.51
62655;BME280;48717;55.556;37.816;2024-02-16T02:36:35;101077.56;;;-11.28;94.62
62655;BME280;48717;55.556;37.816;2024-02-16T02:39:03;101060.13;;;-11.32;94.35
62655;BME280;48717;55.556;37.816;2024-02-16T02:41:30;101064.66;;;-11.29;94.49
62655;BME280;48717;55.556;37.816;2024-02-16T02:43:57;101073.22;;;-11.29;94.66
62655;BME280;48717;55.556;37.816;2024-02-16T02:46:25;101060.13;;;-11.32;94.45
62655;BME280;48717;55.556;37.816;2024-02-16T02:48:54;101062.84;;;-11.30;94.43
62655;BME280;48717;55.556;37.816;2024-02-16T02:51:22;101076.97;;;-11.25;94.44
62655;BME280;48717;55.556;37.816;2024-02-16T02:53:49;101074.59;;;-11.23;94.01
62655;BME280;48717;55.556;37.816;2024-02-16T02:56:17;101072.78;;;-11.24;94.42
62655;BME280;48717;55.556;37.816;2024-02-16T02:58:45;101074.59;;;-11.23;94.32
62655;BME280;48717;55.556;37.816;2024-02-16T03:01:13;101085.09;;;-11.20;94.39
62655;BME280;48717;55.556;37.816;2024-02-16T03:03:40;101081.50;;;-11.22;94.17
62655;BME280;48717;55.556;37.816;2024-02-16T03:06:08;101082.69;;;-11.19;93.98
62655;BME280;48717;55.556;37.816;2024-02-16T03:08:35;101081.81;;;-11.19;94.47
62655;BME280;48717;55.556;37.816;2024-02-16T03:11:03;101082.97;;;-11.24;94.41
62655;BME280;48717;55.556;37.816;2024-02-16T03:13:34;101069.81;;;-11.20;94.65
62655;BME280;48717;55.556;37.816;2024-02-16T03:16:01;101070.97;;;-11.25;94.34
62655;BME280;48717;55.556;37.816;2024-02-16T03:18:30;101069.16;;;-11.27;94.10
62655;BME280;48717;55.556;37.816;2024-02-16T03:20:57;101073.50;;;-11.25;94.68
62655;BME280;48717;55.556;37.816;2024-02-16T03:23:25;101073.50;;;-11.25;94.77
62655;BME280;48717;55.556;37.816;2024-02-16T03:25:52;101076.41;;;-11.22;93.77
62655;BME280;48717;55.556;37.816;2024-02-16T03:28:19;101062.53;;;-11.33;94.72
62655;BME280;48717;55.556;37.816;2024-02-16T03:30:47;101081.50;;;-11.22;94.29
62655;BME280;48717;55.556;37.816;2024-02-16T03:33:16;101080.97;;;-11.27;94.06
62655;BME280;48717;55.556;37.816;2024-02-16T03:35:43;101069.09;;;-11.35;94.56
62655;BME280;48717;55.556;37.816;2024-02-16T03:38:10;101090.75;;;-11.23;94.53
62655;BME280;48717;55.556;37.816;2024-02-16T03:40:38;101097.81;;;-11.20;94.75
62655;BME280;48717;55.556;37.816;2024-02-16T03:43:05;101086.59;;;-11.22;94.73
62655;BME280;48717;55.556;37.816;2024-02-16T03:45:32;101079.69;;;-11.23;94.16
62655;BME280;48717;55.556;37.816;2024-02-16T03:48:00;101037.41;;;-11.46;94.60
62655;BME280;48717;55.556;37.816;2024-02-16T03:50:27;101077.03;;;-11.32;94.24
62655;BME280;48717;55.556;37.816;2024-02-16T03:52:54;101077.22;;;-11.31;94.41
62655;BME280;48717;55.556;37.816;2024-02-16T03:55:22;101065.81;;;-11.34;94.88
62655;BME280;48717;55.556;37.816;2024-02-16T03:57:50;101092.41;;;-11.23;94.18
62655;BME280;48717;55.556;37.816;2024-02-16T04:00:17;101091.34;;;-11.25;94.52
62655;BME280;48717;55.556;37.816;2024-02-16T04:02:44;101098.97;;;-11.25;93.76
62655;BME280;48717;55.556;37.816;2024-02-16T04:05:12;101105.97;;;-11.16;93.77
62655;BME280;48717;55.556;37.816;2024-02-16T04:07:40;101102.50;;;-11.16;94.44
62655;BME280;48717;55.556;37.816;2024-02-16T04:10:08;101095.59;;;-11.17;93.83
62655;BME280;48717;55.556;37.816;2024-02-16T04:12:35;101094.16;;;-11.15;94.05
62655;BME280;48717;55.556;37.816;2024-02-16T04:15:04;101099.53;;;-11.12;94.15
62655;BME280;48717;55.556;37.816;2024-02-16T04:17:31;101102.59;;;-11.07;93.67
62655;BME280;48717;55.556;37.816;2024-02-16T04:19:59;101092.66;;;-11.13;93.92
62655;BME280;48717;55.556;37.816;2024-02-16T04:22:26;101090.50;;;-11.17;93.89
62655;BME280;48717;55.556;37.816;2024-02-16T04:24:54;101081.53;;;-11.14;93.52
62655;BME280;48717;55.556;37.816;2024-02-16T04:27:21;101093.88;;;-11.09;93.64
62655;BME280;48717;55.556;37.816;2024-02-16T04:29:48;101083.38;;;-11.12;93.74
62655;BME280;48717;55.556;37.816;2024-02-16T04:32:16;101074.47;;;-11.16;92.92
62655;BME280;48717;55.556;37.816;2024-02-16T04:34:43;101083.22;;;-11.14;93.80
62655;BME280;48717;55.556;37.816;2024-02-16T04:37:10;101088.47;;;-11.12;93.68
62655;BME280;48717;55.556;37.816;2024-02-16T04:39:38;101090.84;;;-11.14;93.14
62655;BME280;48717;55.556;37.816;2024-02-16T04:42:07;101085.19;;;-11.11;93.74
62655;BME280;48717;55.556;37.816;2024-02-16T04:44:39;101080.81;;;-11.12;93.69
62655;BME280;48717;55.556;37.816;2024-02-16T04:47:07;101081.72;;;-11.12;93.57
62655;BME280;48717;55.556;37.816;2024-02-16T04:49:36;101075.56;;;-11.14;93.33
62655;BME280;48717;55.556;37.816;2024-02-16T04:52:04;101063.50;;;-11.24;93.92
62655;BME280;48717;55.556;37.816;2024-02-16T04:54:31;101077.03;;;-11.16;93.21
62655;BME280;48717;55.556;37.816;2024-02-16T04:56:58;101083.22;;;-11.14;93.97
62655;BME280;48717;55.556;37.816;2024-02-16T04:59:25;101085.41;;;-11.17;93.51
62655;BME280;48717;55.556;37.816;2024-02-16T05:01:52;101078.69;;;-11.17;93.37
62655;BME280;48717;55.556;37.816;2024-02-16T05:04:20;101085.75;;;-11.14;93.42
62655;BME280;48717;55.556;37.816;2024-02-16T05:06:48;101078.34;;;-11.20;93.37
62655;BME280;48717;55.556;37.816;2024-02-16T05:09:15;101077.44;;;-11.20;93.55
62655;BME280;48717;55.556;37.816;2024-02-16T05:11:45;101079.00;;;-11.14;93.63
62655;BME280;48717;55.556;37.816;2024-02-16T05:14:13;101088.78;;;-11.09;93.25
62655;BME280;48717;55.556;37.816;2024-02-16T05:16:45;101089.44;;;-11.03;93.10
62655;BME280;48717;55.556;37.816;2024-02-16T05:19:13;101095.13;;;-11.06;93.62
62655;BME280;48717;55.556;37.816;2024-02-16T05:21:40;101074.75;;;-11.06;93.36
62655;BME280;48717;55.556;37.816;2024-02-16T05:24:08;101070.53;;;-11.05;93.20
62655;BME280;48717;55.556;37.816;2024-02-16T05:26:36;101080.13;;;-11.03;93.30
62655;BME280;48717;55.556;37.816;2024-02-16T05:29:04;101088.53;;;-11.04;93.68
62655;BME280;48717;55.556;37.816;2024-02-16T05:31:31;101075.50;;;-11.07;93.43
62655;BME280;48717;55.556;37.816;2024-02-16T05:33:58;101084.97;;;-10.97;93.58
62655;BME280;48717;55.556;37.816;2024-02-16T05:36:26;101048.94;;;-11.09;93.45
62655;BME280;48717;55.556;37.816;2024-02-16T05:38:54;101065.19;;;-10.99;93.33
62655;BME280;48717;55.556;37.816;2024-02-16T05:41:23;101064.94;;;-10.94;93.39
62655;BME280;48717;55.556;37.816;2024-02-16T05:43:50;101068.22;;;-10.95;92.79
62655;BME280;48717;55.556;37.816;2024-02-16T05:46:18;101077.25;;;-10.90;92.50
62655;BME280;48717;55.556;37.816;2024-02-16T05:48:46;101080.13;;;-10.86;92.87
62655;BME280;48717;55.556;37.816;2024-02-16T05:51:13;101081.34;;;-10.83;92.56
62655;BME280;48717;55.556;37.816;2024-02-16T05:53:42;101092.91;;;-10.78;91.96
62655;BME280;48717;55.556;37.816;2024-02-16T05:56:09;101070.41;;;-10.82;92.10
62655;BME280;48717;55.556;37.816;2024-02-16T05:58:37;101088.91;;;-10.76;92.37
62655;BME280;48717;55.556;37.816;2024-02-16T06:01:04;101083.34;;;-10.71;91.48
62655;BME280;48717;55.556;37.816;2024-02-16T06:03:32;101092.41;;;-10.66;91.73
62655;BME280;48717;55.556;37.816;2024-02-16T06:05:59;101076.47;;;-10.72;91.66
62655;BME280;48717;55.556;37.816;2024-02-16T06:08:26;101098.47;;;-10.57;91.04
62655;BME280;48717;55.556;37.816;2024-02-16T06:10:56;101087.59;;;-10.63;91.05
62655;BME280;48717;55.556;37.816;2024-02-16T06:13:24;101097.28;;;-10.52;90.84
62655;BME280;48717;55.556;37.816;2024-02-16T06:15:51;101099.41;;;-10.47;90.43
62655;BME280;48717;55.556;37.816;2024-02-16T06:18:18;101100.63;;;-10.44;90.47
62655;BME280;48717;55.556;37.816;2024-02-16T06:20:46;101105.44;;;-10.38;90.30
62655;BME280;48717;55.556;37.816;2024-02-16T06:23:13;101102.47;;;-10.34;90.59
62655;BME280;48717;55.556;37.816;2024-02-16T06:25:45;101099.47;;;-10.30;90.04
62655;BME280;48717;55.556;37.816;2024-02-16T06:28:13;101114.94;;;-10.28;89.85
62655;BME280;48717;55.556;37.816;2024-02-16T06:30:40;101100.81;;;-10.33;89.80
62655;BME280;48717;55.556;37.816;2024-02-16T06:33:07;101106.44;;;-10.20;89.54
62655;BME280;48717;55.556;37.816;2024-02-16T06:35:35;101112.41;;;-10.19;89.54
62655;BME280;48717;55.556;37.816;2024-02-16T06:38:02;101099.56;;;-10.12;89.63
62655;BME280;48717;55.556;37.816;2024-02-16T06:40:30;101100.78;;;-10.09;88.99
62655;BME280;48717;55.556;37.816;2024-02-16T06:42:57;101108.59;;;-10.07;88.47
62655;BME280;48717;55.556;37.816;2024-02-16T06:45:24;101109.19;;;-10.01;88.83
62655;BME280;48717;55.556;37.816;2024-02-16T06:47:52;101106.81;;;-9.99;88.92
62655;BME280;48717;55.556;37.816;2024-02-16T06:50:21;101109.84;;;-9.94;89.04
62655;BME280;48717;55.556;37.816;2024-02-16T06:52:49;101113.75;;;-9.89;89.04
62655;BME280;48717;55.556;37.816;2024-02-16T06:55:16;101107.75;;;-9.90;88.38
62655;BME280;48717;55.556;37.816;2024-02-16T06:57:43;101110.16;;;-9.91;88.67
62655;BME280;48717;55.556;37.816;2024-02-16T07:00:12;101116.47;;;-9.88;87.98
62655;BME280;48717;55.556;37.816;2024-02-16T07:02:43;101118.59;;;-9.84;88.41
62655;BME280;48717;55.556;37.816;2024-02-16T07:05:12;101125.66;;;-9.81;88.36
62655;BME280;48717;55.556;37.816;2024-02-16T07:07:39;101105.66;;;-9.85;87.97
62655;BME280;48717;55.556;37.816;2024-02-16T07:10:07;101114.84;;;-9.78;87.90
62655;BME280;48717;55.556;37.816;2024-02-16T07:12:35;101108.72;;;-9.72;87.71
62655;BME280;48717;55.556;37.816;2024-02-16T07:15:03;101097.47;;;-9.74;87.68
62655;BME280;48717;55.556;37.816;2024-02-16T07:17:30;101091.75;;;-9.71;87.95
62655;BME280;48717;55.556;37.816;2024-02-16T07:19:57;101109.31;;;-9.65;87.75
62655;BME280;48717;55.556;37.816;2024-02-16T07:22:25;101093.41;;;-9.63;87.39
62655;BME280;48717;55.556;37.816;2024-02-16T07:24:52;101092.84;;;-9.60;88.22
62655;BME280;48717;55.556;37.816;2024-02-16T07:27:20;101105.28;;;-9.54;87.75
62655;BME280;48717;55.556;37.816;2024-02-16T07:29:47;101099.00;;;-9.58;87.40
62655;BME280;48717;55.556;37.816;2024-02-16T07:32:15;101104.69;;;-9.52;87.27
62655;BME280;48717;55.556;37.816;2024-02-16T07:34:46;101103.22;;;-9.50;86.78
62655;BME280;48717;55.556;37.816;2024-02-16T07:37:17;101101.84;;;-9.46;86.78
62655;BME280;48717;55.556;37.816;2024-02-16T07:39:45;101100.97;;;-9.47;86.45
62655;BME280;48717;55.556;37.816;2024-02-16T07:42:12;101092.09;;;-9.50;86.80
62655;BME280;48717;55.556;37.816;2024-02-16T07:44:40;101112.41;;;-9.43;86.58
62655;BME280;48717;55.556;37.816;2024-02-16T07:47:07;101103.38;;;-9.39;87.13
62655;BME280;48717;55.556;37.816;2024-02-16T07:49:38;101092.25;;;-9.31;87.49
62655;BME280;48717;55.556;37.816;2024-02-16T07:52:09;101096.94;;;-9.36;86.73
62655;BME280;48717;55.556;37.816;2024-02-16T07:54:36;101089.84;;;-9.38;86.78
62655;BME280;48717;55.556;37.816;2024-02-16T07:57:04;101091.94;;;-9.34;86.59
62655;BME280;48717;55.556;37.816;2024-02-16T07:59:31;101083.25;;;-9.36;87.12
62655;BME280;48717;55.556;37.816;2024-02-16T08:01:59;101082.19;;;-9.38;86.37
62655;BME280;48717;55.556;37.816;2024-02-16T08:04:26;101094.50;;;-9.34;87.00
62655;BME280;48717;55.556;37.816;2024-02-16T08:06:54;101099.50;;;-9.36;86.42
62655;BME280;48717;55.556;37.816;2024-02-16T08:09:22;101091.66;;;-9.37;85.83
62655;BME280;48717;55.556;37.816;2024-02-16T08:11:49;101083.53;;;-9.42;86.37
62655;BME280;48717;55.556;37.816;2024-02-16T08:14:18;101095.91;;;-9.29;87.17
62655;BME280;48717;55.556;37.816;2024-02-16T08:16:45;101107.75;;;-9.21;86.97
62655;BME280;48717;55.556;37.816;2024-02-16T08:19:12;101106.41;;;-9.17;86.01
62655;BME280;48717;55.556;37.816;2024-02-16T08:21:41;101095.59;;;-9.14;85.24
62655;BME280;48717;55.556;37.816;2024-02-16T08:24:08;101105.69;;;-9.07;85.96
62655;BME280;48717;55.556;37.816;2024-02-16T08:26:36;101094.69;;;-9.24;85.63
62655;BME280;48717;55.556;37.816;2024-02-16T08:29:03;101111.69;;;-9.15;85.69
62655;BME280;48717;55.556;37.816;2024-02-16T08:31:30;101131.34;;;-9.06;84.57
62655;BME280;48717;55.556;37.816;2024-02-16T08:33:58;101119.03;;;-9.10;85.02
62655;BME280;48717;55.556;37.816;2024-02-16T08:36:27;101112.44;;;-9.08;85.09
62655;BME280;48717;55.556;37.816;2024-02-16T08:38:58;101122.66;;;-8.99;84.56
62655;BME280;48717;55.556;37.816;2024-02-16T08:41:25;101115.31;;;-9.05;84.24
62655;BME280;48717;55.556;37.816;2024-02-16T08:43:52;101119.94;;;-9.09;85.66
62655;BME280;48717;55.556;37.816;2024-02-16T08:46:19;101119.66;;;-9.03;84.92
62655;BME280;48717;55.556;37.816;2024-02-16T08:48:47;101129.28;;;-9.01;85.35
62655;BME280;48717;55.556;37.816;2024-02-16T08:51:16;101129.88;;;-9.03;84.65
62655;BME280;48717;55.556;37.816;2024-02-16T08:53:43;101149.41;;;-8.86;85.07
62655;BME280;48717;55.556;37.816;2024-02-16T08:56:11;101138.59;;;-8.84;85.38
62655;BME280;48717;55.556;37.816;2024-02-16T08:58:38;101145.50;;;-8.74;84.75
62655;BME280;48717;55.556;37.816;2024-02-16T09:01:06;101146.09;;;-8.68;84.84
62655;BME280;48717;55.556;37.816;2024-02-16T09:03:35;101120.84;;;-8.65;84.16
62655;BME280;48717;55.556;37.816;2024-02-16T09:06:06;101133.47;;;-8.57;83.91
62655;BME280;48717;55.556;37.816;2024-02-16T09:08:33;101121.44;;;-8.58;83.81
62655;BME280;48717;55.556;37.816;2024-02-16T09:11:02;101130.47;;;-8.53;84.04
62655;BME280;48717;55.556;37.816;2024-02-16T09:13:36;101111.69;;;-8.62;84.29
62655;BME280;48717;55.556;37.816;2024-02-16T09:16:07;101112.72;;;-8.60;84.18
62655;BME280;48717;55.556;37.816;2024-02-16T09:18:35;101113.28;;;-8.54;84.48
62655;BME280;48717;55.556;37.816;2024-02-16T09:21:05;101118.69;;;-8.51;84.74
62655;BME280;48717;55.556;37.816;2024-02-16T09:23:34;101122.00;;;-8.52;83.89
62655;BME280;48717;55.556;37.816;2024-02-16T09:26:02;101108.16;;;-8.54;84.41
62655;BME280;48717;55.556;37.816;2024-02-16T09:28:30;101108.75;;;-8.48;83.69
62655;BME280;48717;55.556;37.816;2024-02-16T09:30:58;101106.31;;;-8.38;84.39
62655;BME280;48717;55.556;37.816;2024-02-16T09:33:25;101124.22;;;-8.29;84.39
62655;BME280;48717;55.556;37.816;2024-02-16T09:35:54;101116.06;;;-8.24;83.01
62655;BME280;48717;55.556;37.816;2024-02-16T09:38:22;101109.88;;;-8.18;83.10
62655;BME280;48717;55.556;37.816;2024-02-16T09:40:50;101097.53;;;-8.22;82.16
62655;BME280;48717;55.556;37.816;2024-02-16T09:43:29;101106.25;;;-8.20;82.58
62655;BME280;48717;55.556;37.816;2024-02-16T09:45:58;101121.47;;;-8.21;81.96
62655;BME280;48717;55.556;37.816;2024-02-16T09:48:27;101109.88;;;-8.27;83.27
62655;BME280;48717;55.556;37.816;2024-02-16T09:50:57;101107.78;;;-8.22;83.28
62655;BME280;48717;55.556;37.816;2024-02-16T09:53:27;101111.06;;;-8.14;81.95
62655;BME280;48717;55.556;37.816;2024-02-16T09:55:55;101083.69;;;-8.24;82.42
62655;BME280;48717;55.556;37.816;2024-02-16T09:58:23;101090.34;;;-8.26;82.78
62655;BME280;48717;55.556;37.816;2024-02-16T10:00:52;101078.56;;;-8.24;82.08
62655;BME280;48717;55.556;37.816;2024-02-16T10:03:26;101090.28;;;-8.17;81.61
62655;BME280;48717;55.556;37.816;2024-02-16T10:06:07;101082.19;;;-8.22;82.35
62655;BME280;48717;55.556;37.816;2024-02-16T10:08:54;101083.69;;;-8.24;81.05
62655;BME280;48717;55.556;37.816;2024-02-16T10:11:25;101073.03;;;-8.38;81.66
62655;BME280;48717;55.556;37.816;2024-02-16T10:14:13;101070.47;;;-8.38;81.51
62655;BME280;48717;55.556;37.816;2024-02-16T10:16:40;101078.00;;;-8.30;83.36
62655;BME280;48717;55.556;37.816;2024-02-16T10:19:08;101066.22;;;-8.28;83.02
62655;BME280;48717;55.556;37.816;2024-02-16T10:21:43;101062.91;;;-8.18;82.20
62655;BME280;48717;55.556;37.816;2024-02-16T10:24:12;101056.75;;;-8.20;81.82
62655;BME280;48717;55.556;37.816;2024-02-16T10:26:42;101072.84;;;-8.21;80.64
62655;BME280;48717;55.556;37.816;2024-02-16T10:29:10;101047.28;;;-8.30;81.52
62655;BME280;48717;55.556;37.816;2024-02-16T10:31:38;101050.25;;;-8.17;81.14
62655;BME280;48717;55.556;37.816;2024-02-16T10:34:06;101064.28;;;-7.94;80.64
62655;BME280;48717;55.556;37.816;2024-02-16T10:36:35;101057.28;;;-7.77;81.02
62655;BME280;48717;55.556;37.816;2024-02-16T10:39:05;101045.03;;;-7.71;80.11
62655;BME280;48717;55.556;37.816;2024-02-16T10:41:35;101041.22;;;-7.66;79.66
62655;BME280;48717;55.556;37.816;2024-02-16T10:44:04;101045.97;;;-7.51;79.37
62655;BME280;48717;55.556;37.816;2024-02-16T10:46:34;101053.56;;;-7.62;78.52
62655;BME280;48717;55.556;37.816;2024-02-16T10:49:01;101042.22;;;-7.74;77.53
62655;BME280;48717;55.556;37.816;2024-02-16T10:51:44;101072.06;;;-7.83;79.24
62655;BME280;48717;55.556;37.816;2024-02-16T10:54:18;101075.41;;;-7.84;79.51
62655;BME280;48717;55.556;37.816;2024-02-16T10:56:47;101065.75;;;-7.78;79.82
62655;BME280;48717;55.556;37.816;2024-02-16T10:59:16;101072.19;;;-7.73;79.74
62655;BME280;48717;55.556;37.816;2024-02-16T11:01:44;101050.97;;;-7.81;80.36
62655;BME280;48717;55.556;37.816;2024-02-16T11:04:15;101044.97;;;-7.81;80.43
62655;BME280;48717;55.556;37.816;2024-02-16T11:07:00;101052.16;;;-7.77;79.97
62655;BME280;48717;55.556;37.816;2024-02-16T11:09:33;101040.72;;;-7.81;79.42
62655;BME280;48717;55.556;37.816;2024-02-16T11:12:03;101065.84;;;-7.77;80.03
62655;BME280;48717;55.556;37.816;2024-02-16T11:14:38;101047.81;;;-7.78;79.21
62655;BME280;48717;55.556;37.816;2024-02-16T11:17:10;101075.91;;;-7.69;80.75
62655;BME280;48717;55.556;37.816;2024-02-16T11:19:45;101065.06;;;-7.67;80.15
62655;BME280;48717;55.556;37.816;2024-02-16T11:22:18;101072.69;;;-7.58;79.87
62655;BME280;48717;55.556;37.816;2024-02-16T11:24:48;101076.63;;;-7.62;79.16
62655;BME280;48717;55.556;37.816;2024-02-16T11:27:16;101062.34;;;-7.68;79.15
62655;BME280;48717;55.556;37.816;2024-02-16T11:29:49;101066.81;;;-7.57;77.54
62655;BME280;48717;55.556;37.816;2024-02-16T11:32:21;101065.06;;;-7.67;78.49
62655;BME280;48717;55.556;37.816;2024-02-16T11:34:48;101063.81;;;-7.62;77.73
62655;BME280;48717;55.556;37.816;2024-02-16T11:37:16;101074.63;;;-7.55;78.53
62655;BME280;48717;55.556;37.816;2024-02-16T11:39:44;101060.16;;;-7.55;78.32
62655;BME280;48717;55.556;37.816;2024-02-16T11:42:19;101069.91;;;-7.51;77.88
62655;BME280;48717;55.556;37.816;2024-02-16T11:44:52;101061.72;;;-7.66;77.20
62655;BME280;48717;55.556;37.816;2024-02-16T11:47:24;101041.84;;;-7.68;77.93
62655;BME280;48717;55.556;37.816;2024-02-16T11:50:07;101048.72;;;-7.58;78.50
62655;BME280;48717;55.556;37.816;2024-02-16T11:52:39;101056.22;;;-7.51;77.80
62655;BME280;48717;55.556;37.816;2024-02-16T11:55:10;101063.56;;;-7.45;77.71
62655;BME280;48717;55.556;37.816;2024-02-16T11:57:39;101059.63;;;-7.42;77.00
62655;BME280;48717;55.556;37.816;2024-02-16T12:00:07;101058.66;;;-7.34;76.89
62655;BME280;48717;55.556;37.816;2024-02-16T12:02:38;101047.47;;;-7.53;75.40
62655;BME280;48717;55.556;37.816;2024-02-16T12:05:06;101024.00;;;-7.77;75.94
62655;BME280;48717;55.556;37.816;2024-02-16T12:07:38;101021.44;;;-7.77;76.68
62655;BME280;48717;55.556;37.816;2024-02-16T12:10:08;101030.44;;;-7.72;77.04
62655;BME280;48717;55.556;37.816;2024-02-16T12:12:36;101047.28;;;-7.65;76.89
62655;BME280;48717;55.556;37.816;2024-02-16T12:15:05;101028.06;;;-7.79;76.52
62655;BME280;48717;55.556;37.816;2024-02-16T12:17:34;101049.78;;;-7.84;77.05
62655;BME280;48717;55.556;37.816;2024-02-16T12:20:02;101042.31;;;-7.92;78.00
62655;BME280;48717;55.556;37.816;2024-02-16T12:22:30;101051.50;;;-7.94;77.63
62655;BME280;48717;55.556;37.816;2024-02-16T12:24:57;101050.88;;;-7.91;78.74
62655;BME280;48717;55.556;37.816;2024-02-16T12:27:29;101047.53;;;-7.81;78.75
62655;BME280;48717;55.556;37.816;2024-02-16T12:29:57;101049.59;;;-7.77;77.59
62655;BME280;48717;55.556;37.816;2024-02-16T12:32:25;101053.41;;;-7.82;78.04
62655;BME280;48717;55.556;37.816;2024-02-16T12:34:52;101045.34;;;-7.96;77.86
62655;BME280;48717;55.556;37.816;2024-02-16T12:37:20;101044.72;;;-7.93;78.31
62655;BME280;48717;55.556;37.816;2024-02-16T12:39:47;101064.78;;;-7.98;77.51
62655;BME280;48717;55.556;37.816;2024-02-16T12:42:15;101066.63;;;-8.06;78.32